sensor_id;sensor_type;location;lat;lon;timestamp;P1;durP1;ratioP1;P2;durP2;ratioP2
14348;SDS011;7258;50.376;8.742;2023-04-03T00:01:32;3.30;;;2.90;;
14348;SDS011;7258;50.376;8.742;2023-04-03T00:03:36;4.33;;;2.80;;
14348;SDS011;7258;50.376;8.742;2023-04-03T00:05:39;3.57;;;2.57;;
14348;SDS011;7258;50.376;8.742;2023-04-03T00:07:44;3.87;;;2.63;;
14348;SDS011;7258;50.376;8.742;2023-04-03T00:09:46;2.67;;;2.47;;
14348;SDS011;7258;50.376;8.742;2023-04-03T00:11:49;4.30;;;2.27;;
14348;SDS011;7258;50.376;8.742;2023-04-03T00:13:52;2.47;;;2.00;;
14348;SDS011;7258;50.376;8.742;2023-04-03T00:15:55;2.50;;;2.30;;
14348;SDS011;7258;50.376;8.742;2023-04-03T00:17:58;2.83;;;2.37;;
14348;SDS011;7258;50.376;8.742;2023-04-03T00:20:05;2.13;;;1.93;;
14348;SDS011;7258;50.376;8.742;2023-04-03T00:22:08;2.43;;;1.90;;
14348;SDS011;7258;50.376;8.742;2023-04-03T00:24:12;2.17;;;1.70;;
14348;SDS011;7258;50.376;8.742;2023-04-03T00:26:16;2.20;;;1.80;;
14348;SDS011;7258;50.376;8.742;2023-04-03T00:28:19;3.20;;;1.80;;
14348;SDS011;7258;50.376;8.742;2023-04-03T00:30:22;3.63;;;1.77;;
14348;SDS011;7258;50.376;8.742;2023-04-03T00:32:25;3.67;;;1.93;;
14348;SDS011;7258;50.376;8.742;2023-04-03T00:34:28;2.97;;;2.00;;
14348;SDS011;7258;50.376;8.742;2023-04-03T00:36:31;3.03;;;1.93;;
14348;SDS011;7258;50.376;8.742;2023-04-03T00:38:34;3.10;;;2.03;;
14348;SDS011;7258;50.376;8.742;2023-04-03T00:40:39;3.33;;;1.93;;
14348;SDS011;7258;50.376;8.742;2023-04-03T00:42:45;4.50;;;1.97;;
14348;SDS011;7258;50.376;8.742;2023-04-03T00:47:38;3.90;;;2.03;;
14348;SDS011;7258;50.376;8.742;2023-04-03T00:49:43;3.00;;;1.80;;
14348;SDS011;7258;50.376;8.742;2023-04-03T00:51:47;3.17;;;1.87;;
14348;SDS011;7258;50.376;8.742;2023-04-03T00:54:22;2.90;;;1.90;;
14348;SDS011;7258;50.376;8.742;2023-04-03T00:56:27;2.57;;;1.73;;
14348;SDS011;7258;50.376;8.742;2023-04-03T00:58:33;2.77;;;1.83;;
14348;SDS011;7258;50.376;8.742;2023-04-03T01:00:42;2.20;;;2.00;;
14348;SDS011;7258;50.376;8.742;2023-04-03T01:02:50;3.93;;;1.77;;
14348;SDS011;7258;50.376;8.742;2023-04-03T01:04:53;5.70;;;1.90;;
14348;SDS011;7258;50.376;8.742;2023-04-03T01:06:56;2.73;;;1.40;;
14348;SDS011;7258;50.376;8.742;2023-04-03T01:09:02;4.67;;;1.83;;
14348;SDS011;7258;50.376;8.742;2023-04-03T01:11:05;3.47;;;1.83;;
14348;SDS011;7258;50.376;8.742;2023-04-03T01:13:18;3.33;;;1.80;;
14348;SDS011;7258;50.376;8.742;2023-04-03T01:15:24;3.07;;;1.77;;
14348;SDS011;7258;50.376;8.742;2023-04-03T01:17:32;2.87;;;1.60;;
14348;SDS011;7258;50.376;8.742;2023-04-03T01:19:36;2.27;;;1.60;;
14348;SDS011;7258;50.376;8.742;2023-04-03T01:21:50;3.53;;;1.87;;
14348;SDS011;7258;50.376;8.742;2023-04-03T01:26:35;4.60;;;1.87;;
14348;SDS011;7258;50.376;8.742;2023-04-03T01:28:39;2.83;;;1.90;;
14348;SDS011;7258;50.376;8.742;2023-04-03T01:30:43;2.80;;;1.90;;
14348;SDS011;7258;50.376;8.742;2023-04-03T01:32:52;3.53;;;1.90;;
14348;SDS011;7258;50.376;8.742;2023-04-03T01:34:55;3.30;;;1.87;;
14348;SDS011;7258;50.376;8.742;2023-04-03T01:36:58;3.03;;;1.73;;
14348;SDS011;7258;50.376;8.742;2023-04-03T01:39:01;5.63;;;1.83;;
14348;SDS011;7258;50.376;8.742;2023-04-03T01:41:05;5.73;;;1.97;;
14348;SDS011;7258;50.376;8.742;2023-04-03T01:43:08;3.30;;;1.60;;
14348;SDS011;7258;50.376;8.742;2023-04-03T01:45:11;2.93;;;1.57;;
14348;SDS011;7258;50.376;8.742;2023-04-03T01:47:14;3.43;;;1.57;;
14348;SDS011;7258;50.376;8.742;2023-04-03T01:49:18;3.80;;;1.73;;
14348;SDS011;7258;50.376;8.742;2023-04-03T01:51:21;3.67;;;1.77;;
14348;SDS011;7258;50.376;8.742;2023-04-03T01:53:25;3.43;;;1.80;;
14348;SDS011;7258;50.376;8.742;2023-04-03T01:55:28;2.70;;;1.93;;
14348;SDS011;7258;50.376;8.742;2023-04-03T01:57:31;3.30;;;1.60;;
14348;SDS011;7258;50.376;8.742;2023-04-03T01:59:34;3.23;;;1.70;;
14348;SDS011;7258;50.376;8.742;2023-04-03T02:01:37;4.70;;;1.70;;
14348;SDS011;7258;50.376;8.742;2023-04-03T02:03:40;5.50;;;2.37;;
14348;SDS011;7258;50.376;8.742;2023-04-03T02:05:45;2.73;;;1.50;;
14348;SDS011;7258;50.376;8.742;2023-04-03T02:07:47;3.53;;;1.80;;
14348;SDS011;7258;50.376;8.742;2023-04-03T02:09:51;3.60;;;2.07;;
14348;SDS011;7258;50.376;8.742;2023-04-03T02:11:54;2.37;;;1.70;;
14348;SDS011;7258;50.376;8.742;2023-04-03T02:13:57;4.40;;;1.70;;
14348;SDS011;7258;50.376;8.742;2023-04-03T02:16:05;4.80;;;2.30;;
14348;SDS011;7258;50.376;8.742;2023-04-03T02:18:09;3.57;;;1.70;;
14348;SDS011;7258;50.376;8.742;2023-04-03T02:20:12;4.47;;;1.80;;
14348;SDS011;7258;50.376;8.742;2023-04-03T02:22:17;4.90;;;2.20;;
14348;SDS011;7258;50.376;8.742;2023-04-03T02:24:21;3.00;;;1.87;;
14348;SDS011;7258;50.376;8.742;2023-04-03T02:26:24;4.90;;;2.20;;
14348;SDS011;7258;50.376;8.742;2023-04-03T02:28:27;4.07;;;1.63;;
14348;SDS011;7258;50.376;8.742;2023-04-03T02:30:30;4.87;;;2.00;;
14348;SDS011;7258;50.376;8.742;2023-04-03T02:32:33;4.20;;;1.90;;
14348;SDS011;7258;50.376;8.742;2023-04-03T02:34:36;2.93;;;1.60;;
14348;SDS011;7258;50.376;8.742;2023-04-03T02:36:39;4.23;;;2.20;;
14348;SDS011;7258;50.376;8.742;2023-04-03T02:38:43;4.83;;;2.00;;
14348;SDS011;7258;50.376;8.742;2023-04-03T02:40:49;3.17;;;1.70;;
14348;SDS011;7258;50.376;8.742;2023-04-03T02:42:52;3.63;;;1.83;;
14348;SDS011;7258;50.376;8.742;2023-04-03T02:44:55;4.20;;;2.17;;
14348;SDS011;7258;50.376;8.742;2023-04-03T02:47:00;4.17;;;2.00;;
14348;SDS011;7258;50.376;8.742;2023-04-03T02:49:04;2.57;;;1.90;;
14348;SDS011;7258;50.376;8.742;2023-04-03T02:51:07;2.53;;;1.83;;
14348;SDS011;7258;50.376;8.742;2023-04-03T02:53:10;5.10;;;1.87;;
14348;SDS011;7258;50.376;8.742;2023-04-03T02:55:15;5.17;;;2.03;;
14348;SDS011;7258;50.376;8.742;2023-04-03T02:57:18;5.17;;;1.97;;
14348;SDS011;7258;50.376;8.742;2023-04-03T02:59:21;4.80;;;2.43;;
14348;SDS011;7258;50.376;8.742;2023-04-03T03:01:24;3.53;;;2.10;;
14348;SDS011;7258;50.376;8.742;2023-04-03T03:03:29;5.93;;;2.20;;
14348;SDS011;7258;50.376;8.742;2023-04-03T03:05:40;6.97;;;2.10;;
14348;SDS011;7258;50.376;8.742;2023-04-03T03:07:43;4.73;;;2.30;;
14348;SDS011;7258;50.376;8.742;2023-04-03T03:09:46;3.90;;;2.20;;
14348;SDS011;7258;50.376;8.742;2023-04-03T03:11:50;3.57;;;2.03;;
14348;SDS011;7258;50.376;8.742;2023-04-03T03:13:54;5.50;;;1.90;;
14348;SDS011;7258;50.376;8.742;2023-04-03T03:15:57;4.83;;;1.70;;
14348;SDS011;7258;50.376;8.742;2023-04-03T03:18:00;6.97;;;2.20;;
14348;SDS011;7258;50.376;8.742;2023-04-03T03:20:04;3.80;;;2.00;;
14348;SDS011;7258;50.376;8.742;2023-04-03T03:22:08;5.03;;;2.30;;
14348;SDS011;7258;50.376;8.742;2023-04-03T03:24:10;4.30;;;1.70;;
14348;SDS011;7258;50.376;8.742;2023-04-03T03:26:14;5.27;;;2.30;;
14348;SDS011;7258;50.376;8.742;2023-04-03T03:28:18;4.17;;;2.07;;
14348;SDS011;7258;50.376;8.742;2023-04-03T03:30:21;5.80;;;2.20;;
14348;SDS011;7258;50.376;8.742;2023-04-03T03:32:24;5.10;;;2.13;;
14348;SDS011;7258;50.376;8.742;2023-04-03T03:34:27;6.43;;;2.27;;
14348;SDS011;7258;50.376;8.742;2023-04-03T03:36:30;4.17;;;2.00;;
14348;SDS011;7258;50.376;8.742;2023-04-03T03:38:34;6.33;;;2.67;;
14348;SDS011;7258;50.376;8.742;2023-04-03T03:40:39;6.00;;;2.27;;
14348;SDS011;7258;50.376;8.742;2023-04-03T03:42:42;6.30;;;2.07;;
14348;SDS011;7258;50.376;8.742;2023-04-03T03:44:46;5.00;;;2.23;;
14348;SDS011;7258;50.376;8.742;2023-04-03T03:46:49;3.07;;;2.07;;
14348;SDS011;7258;50.376;8.742;2023-04-03T03:48:52;6.50;;;2.20;;
14348;SDS011;7258;50.376;8.742;2023-04-03T03:50:55;3.83;;;1.90;;
14348;SDS011;7258;50.376;8.742;2023-04-03T03:52:58;4.70;;;2.10;;
14348;SDS011;7258;50.376;8.742;2023-04-03T03:55:02;5.50;;;2.30;;
14348;SDS011;7258;50.376;8.742;2023-04-03T03:57:05;4.03;;;2.07;;
14348;SDS011;7258;50.376;8.742;2023-04-03T03:59:08;4.83;;;2.40;;
14348;SDS011;7258;50.376;8.742;2023-04-03T04:01:14;5.53;;;2.10;;
14348;SDS011;7258;50.376;8.742;2023-04-03T04:03:18;4.73;;;2.20;;
14348;SDS011;7258;50.376;8.742;2023-04-03T04:05:22;5.00;;;2.00;;
14348;SDS011;7258;50.376;8.742;2023-04-03T04:07:25;4.20;;;2.17;;
14348;SDS011;7258;50.376;8.742;2023-04-03T04:09:30;5.60;;;2.30;;
14348;SDS011;7258;50.376;8.742;2023-04-03T04:11:33;5.57;;;2.43;;
14348;SDS011;7258;50.376;8.742;2023-04-03T04:13:36;4.97;;;2.10;;
14348;SDS011;7258;50.376;8.742;2023-04-03T04:15:39;5.17;;;2.40;;
14348;SDS011;7258;50.376;8.742;2023-04-03T04:17:43;3.90;;;1.90;;
14348;SDS011;7258;50.376;8.742;2023-04-03T04:19:47;5.23;;;2.33;;
14348;SDS011;7258;50.376;8.742;2023-04-03T04:21:50;4.23;;;1.80;;
14348;SDS011;7258;50.376;8.742;2023-04-03T04:23:53;2.73;;;2.00;;
14348;SDS011;7258;50.376;8.742;2023-04-03T04:25:57;5.47;;;2.13;;
14348;SDS011;7258;50.376;8.742;2023-04-03T04:28:00;5.47;;;2.40;;
14348;SDS011;7258;50.376;8.742;2023-04-03T04:30:03;4.77;;;2.40;;
14348;SDS011;7258;50.376;8.742;2023-04-03T04:32:08;4.93;;;2.00;;
14348;SDS011;7258;50.376;8.742;2023-04-03T04:34:14;5.40;;;2.37;;
14348;SDS011;7258;50.376;8.742;2023-04-03T04:36:17;4.63;;;2.20;;
14348;SDS011;7258;50.376;8.742;2023-04-03T04:38:21;4.57;;;2.53;;
14348;SDS011;7258;50.376;8.742;2023-04-03T04:40:24;4.57;;;2.20;;
14348;SDS011;7258;50.376;8.742;2023-04-03T04:42:27;3.47;;;1.80;;
14348;SDS011;7258;50.376;8.742;2023-04-03T04:44:30;4.80;;;2.30;;
14348;SDS011;7258;50.376;8.742;2023-04-03T04:46:33;4.30;;;2.13;;
14348;SDS011;7258;50.376;8.742;2023-04-03T04:48:36;2.97;;;2.00;;
14348;SDS011;7258;50.376;8.742;2023-04-03T04:50:44;5.43;;;2.30;;
14348;SDS011;7258;50.376;8.742;2023-04-03T04:52:47;4.73;;;2.10;;
14348;SDS011;7258;50.376;8.742;2023-04-03T04:54:50;6.77;;;2.20;;
14348;SDS011;7258;50.376;8.742;2023-04-03T04:56:53;5.27;;;2.37;;
14348;SDS011;7258;50.376;8.742;2023-04-03T04:58:56;8.20;;;2.67;;
14348;SDS011;7258;50.376;8.742;2023-04-03T05:00:59;5.53;;;2.40;;
14348;SDS011;7258;50.376;8.742;2023-04-03T05:03:05;5.43;;;2.17;;
14348;SDS011;7258;50.376;8.742;2023-04-03T05:05:08;6.30;;;2.30;;
14348;SDS011;7258;50.376;8.742;2023-04-03T05:07:16;3.73;;;2.13;;
14348;SDS011;7258;50.376;8.742;2023-04-03T05:09:19;6.40;;;2.30;;
14348;SDS011;7258;50.376;8.742;2023-04-03T05:11:22;5.13;;;2.43;;
14348;SDS011;7258;50.376;8.742;2023-04-03T05:13:25;7.37;;;2.60;;
14348;SDS011;7258;50.376;8.742;2023-04-03T05:15:28;9.43;;;3.00;;
14348;SDS011;7258;50.376;8.742;2023-04-03T05:17:32;5.50;;;2.43;;
14348;SDS011;7258;50.376;8.742;2023-04-03T05:19:35;4.07;;;2.30;;
14348;SDS011;7258;50.376;8.742;2023-04-03T05:21:38;7.20;;;2.57;;
14348;SDS011;7258;50.376;8.742;2023-04-03T05:23:42;6.63;;;2.40;;
14348;SDS011;7258;50.376;8.742;2023-04-03T05:25:45;5.90;;;2.60;;
14348;SDS011;7258;50.376;8.742;2023-04-03T05:27:50;4.47;;;2.40;;
14348;SDS011;7258;50.376;8.742;2023-04-03T05:29:53;5.57;;;2.60;;
14348;SDS011;7258;50.376;8.742;2023-04-03T05:31:56;5.83;;;2.60;;
14348;SDS011;7258;50.376;8.742;2023-04-03T05:33:59;3.30;;;2.37;;
14348;SDS011;7258;50.376;8.742;2023-04-03T05:36:03;5.23;;;2.57;;
14348;SDS011;7258;50.376;8.742;2023-04-03T05:38:06;3.93;;;2.30;;
14348;SDS011;7258;50.376;8.742;2023-04-03T05:40:11;6.30;;;2.73;;
14348;SDS011;7258;50.376;8.742;2023-04-03T05:42:16;3.83;;;2.57;;
14348;SDS011;7258;50.376;8.742;2023-04-03T05:44:19;4.93;;;2.43;;
14348;SDS011;7258;50.376;8.742;2023-04-03T05:46:22;4.27;;;2.50;;
14348;SDS011;7258;50.376;8.742;2023-04-03T05:48:25;6.37;;;2.63;;
14348;SDS011;7258;50.376;8.742;2023-04-03T05:50:28;5.37;;;2.60;;
14348;SDS011;7258;50.376;8.742;2023-04-03T05:52:33;6.70;;;2.40;;
14348;SDS011;7258;50.376;8.742;2023-04-03T05:54:40;6.50;;;2.67;;
14348;SDS011;7258;50.376;8.742;2023-04-03T05:56:45;7.70;;;3.00;;
14348;SDS011;7258;50.376;8.742;2023-04-03T05:58:48;5.10;;;2.70;;
14348;SDS011;7258;50.376;8.742;2023-04-03T06:00:51;6.63;;;3.03;;
14348;SDS011;7258;50.376;8.742;2023-04-03T06:02:54;5.47;;;2.93;;
14348;SDS011;7258;50.376;8.742;2023-04-03T06:04:57;9.67;;;3.10;;
14348;SDS011;7258;50.376;8.742;2023-04-03T06:07:00;3.77;;;2.60;;
14348;SDS011;7258;50.376;8.742;2023-04-03T06:09:03;5.07;;;3.07;;
14348;SDS011;7258;50.376;8.742;2023-04-03T06:11:06;4.67;;;2.37;;
14348;SDS011;7258;50.376;8.742;2023-04-03T06:13:11;4.67;;;2.67;;
14348;SDS011;7258;50.376;8.742;2023-04-03T06:15:15;5.67;;;2.53;;
14348;SDS011;7258;50.376;8.742;2023-04-03T06:17:18;5.37;;;2.57;;
14348;SDS011;7258;50.376;8.742;2023-04-03T06:19:21;7.03;;;3.30;;
14348;SDS011;7258;50.376;8.742;2023-04-03T06:21:24;4.23;;;2.47;;
14348;SDS011;7258;50.376;8.742;2023-04-03T06:23:27;5.00;;;2.97;;
14348;SDS011;7258;50.376;8.742;2023-04-03T06:25:33;6.77;;;3.27;;
14348;SDS011;7258;50.376;8.742;2023-04-03T06:27:36;4.17;;;2.93;;
14348;SDS011;7258;50.376;8.742;2023-04-03T06:29:41;5.80;;;3.17;;
14348;SDS011;7258;50.376;8.742;2023-04-03T06:31:47;7.03;;;3.03;;
14348;SDS011;7258;50.376;8.742;2023-04-03T06:33:51;7.63;;;3.10;;
14348;SDS011;7258;50.376;8.742;2023-04-03T06:35:57;4.00;;;2.83;;
14348;SDS011;7258;50.376;8.742;2023-04-03T06:38:00;6.07;;;3.20;;
14348;SDS011;7258;50.376;8.742;2023-04-03T06:40:05;5.57;;;3.27;;
14348;SDS011;7258;50.376;8.742;2023-04-03T06:42:12;5.33;;;3.30;;
14348;SDS011;7258;50.376;8.742;2023-04-03T06:44:16;5.87;;;3.07;;
14348;SDS011;7258;50.376;8.742;2023-04-03T06:46:21;7.73;;;3.03;;
14348;SDS011;7258;50.376;8.742;2023-04-03T06:48:24;5.23;;;3.37;;
14348;SDS011;7258;50.376;8.742;2023-04-03T06:50:27;9.27;;;3.50;;
14348;SDS011;7258;50.376;8.742;2023-04-03T06:52:31;6.47;;;3.37;;
14348;SDS011;7258;50.376;8.742;2023-04-03T06:54:34;7.60;;;3.10;;
14348;SDS011;7258;50.376;8.742;2023-04-03T06:56:37;8.43;;;3.23;;
14348;SDS011;7258;50.376;8.742;2023-04-03T06:58:40;5.53;;;3.00;;
14348;SDS011;7258;50.376;8.742;2023-04-03T07:00:45;4.63;;;2.50;;
14348;SDS011;7258;50.376;8.742;2023-04-03T07:02:50;3.40;;;2.90;;
14348;SDS011;7258;50.376;8.742;2023-04-03T07:04:53;5.73;;;2.97;;
14348;SDS011;7258;50.376;8.742;2023-04-03T07:06:56;5.37;;;2.90;;
14348;SDS011;7258;50.376;8.742;2023-04-03T07:08:59;5.70;;;2.77;;
14348;SDS011;7258;50.376;8.742;2023-04-03T07:11:03;5.40;;;2.60;;
14348;SDS011;7258;50.376;8.742;2023-04-03T07:13:06;3.97;;;2.80;;
14348;SDS011;7258;50.376;8.742;2023-04-03T07:15:10;7.67;;;3.00;;
14348;SDS011;7258;50.376;8.742;2023-04-03T07:17:14;8.87;;;3.00;;
14348;SDS011;7258;50.376;8.742;2023-04-03T07:19:18;9.57;;;3.37;;
14348;SDS011;7258;50.376;8.742;2023-04-03T07:21:22;8.80;;;3.73;;
14348;SDS011;7258;50.376;8.742;2023-04-03T07:23:25;7.30;;;3.20;;
14348;SDS011;7258;50.376;8.742;2023-04-03T07:25:28;5.33;;;3.13;;
14348;SDS011;7258;50.376;8.742;2023-04-03T07:27:33;5.20;;;2.90;;
14348;SDS011;7258;50.376;8.742;2023-04-03T07:29:36;4.10;;;2.63;;
14348;SDS011;7258;50.376;8.742;2023-04-03T07:31:39;5.17;;;3.00;;
14348;SDS011;7258;50.376;8.742;2023-04-03T07:33:43;3.87;;;2.80;;
14348;SDS011;7258;50.376;8.742;2023-04-03T07:35:48;6.57;;;3.03;;
14348;SDS011;7258;50.376;8.742;2023-04-03T07:37:53;5.10;;;2.80;;
14348;SDS011;7258;50.376;8.742;2023-04-03T07:39:56;4.67;;;3.00;;
14348;SDS011;7258;50.376;8.742;2023-04-03T07:42:00;5.97;;;2.97;;
14348;SDS011;7258;50.376;8.742;2023-04-03T07:44:03;5.63;;;2.60;;
14348;SDS011;7258;50.376;8.742;2023-04-03T07:46:07;5.57;;;2.30;;
14348;SDS011;7258;50.376;8.742;2023-04-03T07:48:10;4.13;;;2.40;;
14348;SDS011;7258;50.376;8.742;2023-04-03T07:50:13;4.73;;;2.93;;
14348;SDS011;7258;50.376;8.742;2023-04-03T07:52:19;5.67;;;2.90;;
14348;SDS011;7258;50.376;8.742;2023-04-03T07:54:22;4.93;;;2.57;;
14348;SDS011;7258;50.376;8.742;2023-04-03T07:56:25;4.70;;;2.13;;
14348;SDS011;7258;50.376;8.742;2023-04-03T07:58:28;3.87;;;2.33;;
14348;SDS011;7258;50.376;8.742;2023-04-03T08:00:32;5.27;;;2.57;;
14348;SDS011;7258;50.376;8.742;2023-04-03T08:02:37;7.63;;;2.80;;
14348;SDS011;7258;50.376;8.742;2023-04-03T08:04:40;5.00;;;2.30;;
14348;SDS011;7258;50.376;8.742;2023-04-03T08:06:45;5.37;;;2.50;;
14348;SDS011;7258;50.376;8.742;2023-04-03T08:08:49;4.77;;;2.73;;
14348;SDS011;7258;50.376;8.742;2023-04-03T08:10:53;6.73;;;2.43;;
14348;SDS011;7258;50.376;8.742;2023-04-03T08:12:56;5.20;;;2.50;;
14348;SDS011;7258;50.376;8.742;2023-04-03T08:14:59;6.03;;;2.90;;
14348;SDS011;7258;50.376;8.742;2023-04-03T08:17:02;5.13;;;2.90;;
14348;SDS011;7258;50.376;8.742;2023-04-03T08:19:06;4.87;;;2.30;;
14348;SDS011;7258;50.376;8.742;2023-04-03T08:21:19;3.70;;;2.60;;
14348;SDS011;7258;50.376;8.742;2023-04-03T08:23:22;3.23;;;2.10;;
14348;SDS011;7258;50.376;8.742;2023-04-03T08:25:26;7.70;;;2.37;;
14348;SDS011;7258;50.376;8.742;2023-04-03T08:27:30;3.27;;;2.30;;
14348;SDS011;7258;50.376;8.742;2023-04-03T08:29:33;2.90;;;2.17;;
14348;SDS011;7258;50.376;8.742;2023-04-03T08:31:38;4.40;;;2.60;;
14348;SDS011;7258;50.376;8.742;2023-04-03T08:33:41;3.60;;;2.20;;
14348;SDS011;7258;50.376;8.742;2023-04-03T08:35:44;5.20;;;2.50;;
14348;SDS011;7258;50.376;8.742;2023-04-03T08:37:47;4.60;;;2.40;;
14348;SDS011;7258;50.376;8.742;2023-04-03T08:39:50;5.03;;;2.20;;
14348;SDS011;7258;50.376;8.742;2023-04-03T08:41:57;4.03;;;2.50;;
14348;SDS011;7258;50.376;8.742;2023-04-03T08:44:03;4.20;;;2.30;;
14348;SDS011;7258;50.376;8.742;2023-04-03T08:46:15;4.60;;;2.47;;
14348;SDS011;7258;50.376;8.742;2023-04-03T08:48:22;5.87;;;2.30;;
14348;SDS011;7258;50.376;8.742;2023-04-03T08:50:37;4.77;;;2.50;;
14348;SDS011;7258;50.376;8.742;2023-04-03T08:52:44;5.67;;;2.40;;
14348;SDS011;7258;50.376;8.742;2023-04-03T08:54:50;4.40;;;2.13;;
14348;SDS011;7258;50.376;8.742;2023-04-03T08:56:59;4.37;;;2.50;;
14348;SDS011;7258;50.376;8.742;2023-04-03T08:59:06;7.13;;;3.03;;
14348;SDS011;7258;50.376;8.742;2023-04-03T09:01:17;3.40;;;2.30;;
14348;SDS011;7258;50.376;8.742;2023-04-03T09:03:23;3.23;;;2.10;;
14348;SDS011;7258;50.376;8.742;2023-04-03T09:05:30;5.27;;;2.63;;
14348;SDS011;7258;50.376;8.742;2023-04-03T09:07:43;4.40;;;2.43;;
14348;SDS011;7258;50.376;8.742;2023-04-03T09:09:50;3.67;;;2.30;;
14348;SDS011;7258;50.376;8.742;2023-04-03T09:11:56;4.83;;;2.70;;
14348;SDS011;7258;50.376;8.742;2023-04-03T09:14:12;5.40;;;2.17;;
14348;SDS011;7258;50.376;8.742;2023-04-03T09:16:25;4.40;;;2.20;;
14348;SDS011;7258;50.376;8.742;2023-04-03T09:18:36;3.77;;;2.20;;
14348;SDS011;7258;50.376;8.742;2023-04-03T09:20:49;3.80;;;2.30;;
14348;SDS011;7258;50.376;8.742;2023-04-03T09:22:58;4.90;;;2.10;;
14348;SDS011;7258;50.376;8.742;2023-04-03T09:25:02;3.47;;;2.20;;
14348;SDS011;7258;50.376;8.742;2023-04-03T09:27:14;5.57;;;2.70;;
14348;SDS011;7258;50.376;8.742;2023-04-03T09:29:17;4.70;;;2.17;;
14348;SDS011;7258;50.376;8.742;2023-04-03T09:31:23;5.40;;;2.57;;
14348;SDS011;7258;50.376;8.742;2023-04-03T09:33:27;5.83;;;2.30;;
14348;SDS011;7258;50.376;8.742;2023-04-03T09:35:32;3.73;;;2.03;;
14348;SDS011;7258;50.376;8.742;2023-04-03T09:37:49;4.27;;;2.30;;
14348;SDS011;7258;50.376;8.742;2023-04-03T09:39:53;3.83;;;2.07;;
14348;SDS011;7258;50.376;8.742;2023-04-03T09:41:58;2.60;;;1.83;;
14348;SDS011;7258;50.376;8.742;2023-04-03T09:44:17;2.73;;;1.90;;
14348;SDS011;7258;50.376;8.742;2023-04-03T09:46:28;5.47;;;2.40;;
14348;SDS011;7258;50.376;8.742;2023-04-03T09:48:33;3.97;;;2.13;;
14348;SDS011;7258;50.376;8.742;2023-04-03T09:50:36;3.03;;;2.00;;
14348;SDS011;7258;50.376;8.742;2023-04-03T09:52:40;3.97;;;2.20;;
14348;SDS011;7258;50.376;8.742;2023-04-03T09:54:45;3.47;;;2.00;;
14348;SDS011;7258;50.376;8.742;2023-04-03T09:56:49;4.27;;;2.57;;
14348;SDS011;7258;50.376;8.742;2023-04-03T09:59:06;3.87;;;2.10;;
14348;SDS011;7258;50.376;8.742;2023-04-03T10:01:22;3.50;;;2.00;;
14348;SDS011;7258;50.376;8.742;2023-04-03T10:03:29;3.30;;;2.37;;
14348;SDS011;7258;50.376;8.742;2023-04-03T10:05:38;3.27;;;2.13;;
14348;SDS011;7258;50.376;8.742;2023-04-03T10:07:42;2.33;;;2.10;;
14348;SDS011;7258;50.376;8.742;2023-04-03T10:09:59;5.07;;;2.10;;
14348;SDS011;7258;50.376;8.742;2023-04-03T10:12:06;2.83;;;1.90;;
14348;SDS011;7258;50.376;8.742;2023-04-03T10:14:16;3.03;;;1.87;;
14348;SDS011;7258;50.376;8.742;2023-04-03T10:16:20;2.80;;;2.10;;
14348;SDS011;7258;50.376;8.742;2023-04-03T10:18:29;3.30;;;2.07;;
14348;SDS011;7258;50.376;8.742;2023-04-03T10:20:39;3.03;;;1.80;;
14348;SDS011;7258;50.376;8.742;2023-04-03T10:22:49;4.97;;;2.10;;
14348;SDS011;7258;50.376;8.742;2023-04-03T10:25:03;3.73;;;2.00;;
14348;SDS011;7258;50.376;8.742;2023-04-03T10:27:13;3.40;;;2.10;;
14348;SDS011;7258;50.376;8.742;2023-04-03T10:29:30;2.30;;;1.80;;
14348;SDS011;7258;50.376;8.742;2023-04-03T10:31:42;2.00;;;1.80;;
14348;SDS011;7258;50.376;8.742;2023-04-03T10:33:53;3.60;;;1.93;;
14348;SDS011;7258;50.376;8.742;2023-04-03T10:36:07;3.53;;;2.00;;
14348;SDS011;7258;50.376;8.742;2023-04-03T10:38:18;4.00;;;2.60;;
14348;SDS011;7258;50.376;8.742;2023-04-03T10:40:29;2.17;;;1.93;;
14348;SDS011;7258;50.376;8.742;2023-04-03T10:42:36;3.40;;;1.93;;
14348;SDS011;7258;50.376;8.742;2023-04-03T10:44:54;3.03;;;1.97;;
14348;SDS011;7258;50.376;8.742;2023-04-03T10:47:18;3.60;;;1.93;;
14348;SDS011;7258;50.376;8.742;2023-04-03T10:49:27;3.30;;;2.20;;
14348;SDS011;7258;50.376;8.742;2023-04-03T10:51:45;2.10;;;1.93;;
14348;SDS011;7258;50.376;8.742;2023-04-03T10:53:52;2.83;;;2.03;;
14348;SDS011;7258;50.376;8.742;2023-04-03T10:56:01;4.27;;;2.13;;
14348;SDS011;7258;50.376;8.742;2023-04-03T10:58:09;4.10;;;2.23;;
14348;SDS011;7258;50.376;8.742;2023-04-03T11:00:22;2.87;;;2.20;;
14348;SDS011;7258;50.376;8.742;2023-04-03T11:02:29;2.40;;;2.03;;
14348;SDS011;7258;50.376;8.742;2023-04-03T11:04:37;2.47;;;2.10;;
14348;SDS011;7258;50.376;8.742;2023-04-03T11:06:46;3.77;;;2.47;;
14348;SDS011;7258;50.376;8.742;2023-04-03T11:08:52;5.03;;;1.90;;
14348;SDS011;7258;50.376;8.742;2023-04-03T11:11:01;3.73;;;2.23;;
14348;SDS011;7258;50.376;8.742;2023-04-03T11:13:10;2.97;;;1.83;;
14348;SDS011;7258;50.376;8.742;2023-04-03T11:15:17;2.87;;;2.03;;
14348;SDS011;7258;50.376;8.742;2023-04-03T11:17:28;4.03;;;2.30;;
14348;SDS011;7258;50.376;8.742;2023-04-03T11:19:36;2.47;;;1.87;;
14348;SDS011;7258;50.376;8.742;2023-04-03T11:21:44;3.23;;;1.90;;
14348;SDS011;7258;50.376;8.742;2023-04-03T11:23:53;4.53;;;2.10;;
14348;SDS011;7258;50.376;8.742;2023-04-03T11:26:01;3.60;;;1.93;;
14348;SDS011;7258;50.376;8.742;2023-04-03T11:28:11;5.83;;;2.37;;
14348;SDS011;7258;50.376;8.742;2023-04-03T11:30:18;2.93;;;1.73;;
14348;SDS011;7258;50.376;8.742;2023-04-03T11:32:33;3.57;;;2.07;;
14348;SDS011;7258;50.376;8.742;2023-04-03T11:34:52;1.63;;;1.53;;
14348;SDS011;7258;50.376;8.742;2023-04-03T11:37:00;2.00;;;1.60;;
14348;SDS011;7258;50.376;8.742;2023-04-03T11:39:10;2.13;;;1.60;;
14348;SDS011;7258;50.376;8.742;2023-04-03T11:41:25;3.53;;;2.17;;
14348;SDS011;7258;50.376;8.742;2023-04-03T11:43:31;2.63;;;1.93;;
14348;SDS011;7258;50.376;8.742;2023-04-03T11:45:37;4.27;;;2.10;;
14348;SDS011;7258;50.376;8.742;2023-04-03T11:47:52;2.53;;;2.00;;
14348;SDS011;7258;50.376;8.742;2023-04-03T11:49:58;3.90;;;1.70;;
14348;SDS011;7258;50.376;8.742;2023-04-03T11:52:07;3.30;;;2.13;;
14348;SDS011;7258;50.376;8.742;2023-04-03T11:56:46;3.47;;;1.50;;
14348;SDS011;7258;50.376;8.742;2023-04-03T12:03:57;3.93;;;1.87;;
14348;SDS011;7258;50.376;8.742;2023-04-03T12:08:52;4.27;;;1.90;;
14348;SDS011;7258;50.376;8.742;2023-04-03T12:11:15;4.03;;;1.70;;
14348;SDS011;7258;50.376;8.742;2023-04-03T12:13:26;3.83;;;1.80;;
14348;SDS011;7258;50.376;8.742;2023-04-03T12:17:56;2.17;;;1.47;;
14348;SDS011;7258;50.376;8.742;2023-04-03T12:19:59;2.80;;;1.97;;
14348;SDS011;7258;50.376;8.742;2023-04-03T12:22:06;2.60;;;1.90;;
14348;SDS011;7258;50.376;8.742;2023-04-03T12:24:23;3.73;;;1.77;;
14348;SDS011;7258;50.376;8.742;2023-04-03T12:26:28;3.23;;;1.67;;
14348;SDS011;7258;50.376;8.742;2023-04-03T12:28:49;1.97;;;1.77;;
14348;SDS011;7258;50.376;8.742;2023-04-03T12:30:54;2.40;;;1.70;;
14348;SDS011;7258;50.376;8.742;2023-04-03T12:33:09;2.03;;;1.60;;
14348;SDS011;7258;50.376;8.742;2023-04-03T12:35:27;4.37;;;1.70;;
14348;SDS011;7258;50.376;8.742;2023-04-03T12:37:40;3.50;;;1.73;;
14348;SDS011;7258;50.376;8.742;2023-04-03T12:39:55;2.93;;;1.60;;
14348;SDS011;7258;50.376;8.742;2023-04-03T12:42:09;2.00;;;1.50;;
14348;SDS011;7258;50.376;8.742;2023-04-03T12:44:31;3.83;;;1.93;;
14348;SDS011;7258;50.376;8.742;2023-04-03T12:46:43;2.03;;;1.53;;
14348;SDS011;7258;50.376;8.742;2023-04-03T12:48:51;2.53;;;1.73;;
14348;SDS011;7258;50.376;8.742;2023-04-03T12:50:57;1.93;;;1.40;;
14348;SDS011;7258;50.376;8.742;2023-04-03T12:53:01;4.23;;;1.93;;
14348;SDS011;7258;50.376;8.742;2023-04-03T12:55:08;2.00;;;1.80;;
14348;SDS011;7258;50.376;8.742;2023-04-03T12:57:21;2.80;;;1.43;;
14348;SDS011;7258;50.376;8.742;2023-04-03T12:59:26;3.47;;;1.60;;
14348;SDS011;7258;50.376;8.742;2023-04-03T13:01:29;2.20;;;1.37;;
14348;SDS011;7258;50.376;8.742;2023-04-03T13:03:32;1.77;;;1.53;;
14348;SDS011;7258;50.376;8.742;2023-04-03T13:05:45;2.83;;;1.50;;
14348;SDS011;7258;50.376;8.742;2023-04-03T13:07:48;2.37;;;1.60;;